KPDK/PDK METAR and TAF weather

Enter ICAO airport designator
Station Type Date Time Source
KPDK METAR 2021/09/28 15:53 UTC NOAA

KPDK 281553Z 32007G17KT 10SM FEW036 26/17 A3008 RMK AO2 SLP176 T02610167


Station Type Date Time Source
KPDK Decoded METAR 2021/09/28 15:53 UTC NOAA

ATLANTA DE KALB-PEACHTREE, GA, United States (KPDK) 33-53N 084-18W 302M
Sep 28, 2021 - 11:53 AM EDT / 2021.09.28 1553 UTC
Wind: from the NW (320 degrees) at 8 MPH (7 KT) gusting to 20 MPH (17 KT):0
Visibility: 10 mile(s):0
Sky conditions: mostly clear
Temperature: 79.0 F (26.1 C)
Dew Point: 62.1 F (16.7 C)
Relative Humidity: 56%
Pressure (altimeter): 30.08 in. Hg (1018 hPa)
ob: KPDK 281553Z 32007G17KT 10SM FEW036 26/17 A3008 RMK AO2 SLP176 T02610167
cycle: 16

Station Type Date Time Source
KPDK TAF 2021/09/28 14:39 UTC NOAA

TAF
AMD KPDK 281337Z 2814/2912 29004KT P6SM FEW050 SCT250
FM290200 VRB03KT P6SM SKC

Example: see airport list